Time;durP1;ratioP1;P1;durP2;ratioP2;P2;SDS_P1;SDS_P2;PMS_P1;PMS_P2;Temp;Humidity;BMP_temperature;BMP_pressure;BME280_temperature;BME280_humidity;BME280_pressure;Samples;Min_cycle;Max_cycle;Signal;HPM_P1;HPM_P2
2021/01/25 06:00:51;;;;;;;28.73;11.63;;;0.10;97.30;;;;;;5852243;23;20483;-74
2021/01/25 06:03:17;;;;;;;29.67;10.60;;;0.10;97.30;;;;;;4914713;29;20884;-74
2021/01/25 06:05:42;;;;;;;32.23;10.13;;;0.10;97.30;;;;;;4915014;29;20858;-73
2021/01/25 06:08:33;;;;;;;25.20;11.40;;;0.00;97.30;;;;;;4917233;29;20291;-73
2021/01/25 06:11:14;;;;;;;25.33;10.10;;;0.00;97.30;;;;;;4909533;29;20225;-73
2021/01/25 06:13:50;;;;;;;28.50;11.53;;;-0.10;97.30;;;;;;4897903;29;20468;-74
2021/01/25 06:16:20;;;;;;;31.00;12.47;;;-0.20;97.30;;;;;;4897016;29;20502;-74
2021/01/25 06:18:46;;;;;;;33.07;12.47;;;-0.20;97.30;;;;;;4898299;29;20421;-74
2021/01/25 06:21:22;;;;;;;25.43;10.20;;;-0.20;97.30;;;;;;4896198;29;20437;-74
2021/01/25 06:23:48;;;;;;;30.90;10.20;;;-0.20;97.30;;;;;;4896838;29;20414;-74
2021/01/25 06:26:14;;;;;;;28.27;11.17;;;-0.20;97.30;;;;;;4896545;29;20456;-73
2021/01/25 06:28:42;;;;;;;41.50;12.40;;;-0.30;97.30;;;;;;4896560;29;20457;-73
2021/01/25 06:31:09;;;;;;;36.90;12.93;;;-0.30;97.30;;;;;;4896475;29;20682;-74
2021/01/25 06:33:38;;;;;;;43.13;13.23;;;-0.30;97.30;;;;;;4896701;29;20457;-74
2021/01/25 06:36:10;;;;;;;30.43;11.40;;;-0.30;97.30;;;;;;4895751;29;20422;-74
2021/01/25 06:38:36;;;;;;;25.43;10.13;;;-0.30;97.30;;;;;;4896491;29;20733;-74
2021/01/25 06:41:13;;;;;;;31.43;11.27;;;-0.40;97.30;;;;;;4895557;29;20450;-74
2021/01/25 06:43:42;;;;;;;29.63;10.40;;;-0.40;97.30;;;;;;4922249;29;20532;-74
2021/01/25 06:46:09;;;;;;;29.63;11.23;;;-0.40;97.30;;;;;;4895411;29;20430;-73
2021/01/25 06:48:37;;;;;;;26.70;11.00;;;-0.40;97.30;;;;;;4895835;29;20822;-74
2021/01/25 06:51:06;;;;;;;30.07;11.43;;;-0.50;97.30;;;;;;4895649;29;20878;-74
2021/01/25 06:53:35;;;;;;;29.70;11.57;;;-0.50;97.30;;;;;;4899187;29;20453;-75
2021/01/25 06:56:02;;;;;;;29.73;11.53;;;-0.60;97.30;;;;;;4899141;29;20414;-74
2021/01/25 06:58:32;;;;;;;27.87;11.00;;;-0.60;97.30;;;;;;4899774;29;20424;-74
2021/01/25 07:01:08;;;;;;;27.33;10.10;;;-0.60;97.30;;;;;;4899051;29;20474;-74
2021/01/25 07:03:51;;;;;;;29.43;12.07;;;-0.60;97.30;;;;;;4900612;29;20700;-74
2021/01/25 07:06:18;;;;;;;25.77;11.53;;;-0.60;97.30;;;;;;4899401;29;20481;-74
2021/01/25 07:08:56;;;;;;;27.73;10.23;;;-0.60;97.30;;;;;;4900812;29;20434;-74
2021/01/25 07:11:26;;;;;;;33.80;12.37;;;-0.70;97.30;;;;;;4898044;29;20873;-74
2021/01/25 07:13:53;;;;;;;26.63;11.50;;;-0.70;97.30;;;;;;4898661;29;20465;-75
2021/01/25 07:16:19;;;;;;;31.80;12.33;;;-0.70;97.30;;;;;;4899049;29;20410;-74
2021/01/25 07:18:48;;;;;;;32.03;11.30;;;-0.70;97.30;;;;;;4899070;29;20422;-74
2021/01/25 07:21:14;;;;;;;35.73;11.63;;;-0.70;97.30;;;;;;4900144;29;20189;-74
2021/01/25 07:23:42;;;;;;;32.33;10.93;;;-0.70;97.30;;;;;;4899780;29;20417;-75
2021/01/25 07:26:10;;;;;;;32.43;11.00;;;-0.70;97.30;;;;;;4900258;29;20915;-74
2021/01/25 07:28:36;;;;;;;33.33;12.27;;;-0.60;97.30;;;;;;4899304;29;20428;-74
2021/01/25 07:31:01;;;;;;;26.67;10.53;;;-0.60;97.30;;;;;;4898988;29;20445;-73
2021/01/25 07:33:27;;;;;;;29.13;11.83;;;-0.50;97.30;;;;;;4899237;29;20457;-74
2021/01/25 07:35:54;;;;;;;29.50;11.80;;;-0.50;97.30;;;;;;4899082;29;20177;-74
2021/01/25 07:38:20;;;;;;;37.30;13.23;;;-0.50;97.30;;;;;;4899454;29;20189;-74
2021/01/25 07:40:47;;;;;;;27.13;11.53;;;-0.50;97.30;;;;;;4898869;29;20433;-74
2021/01/25 07:43:18;;;;;;;29.27;12.33;;;-0.60;97.30;;;;;;4899329;29;20927;-74
2021/01/25 07:45:46;;;;;;;38.37;14.90;;;-0.60;97.30;;;;;;4900553;29;20414;-74
2021/01/25 07:48:13;;;;;;;29.63;12.77;;;-0.50;97.30;;;;;;4899020;29;20966;-74
2021/01/25 07:50:39;;;;;;;33.30;14.87;;;-0.40;97.30;;;;;;4899531;29;20456;-74
2021/01/25 07:53:07;;;;;;;33.67;12.97;;;-0.40;97.30;;;;;;4899241;29;20969;-75
2021/01/25 07:55:38;;;;;;;36.90;14.03;;;-0.30;97.30;;;;;;4898746;29;20414;-74
2021/01/25 07:58:11;;;;;;;31.87;13.07;;;-0.20;97.30;;;;;;4898616;29;20437;-74
2021/01/25 08:00:40;;;;;;;35.80;12.93;;;-0.20;97.30;;;;;;4900288;29;20435;-74
2021/01/25 08:03:12;;;;;;;30.60;11.80;;;-0.20;97.30;;;;;;4898549;29;20787;-74
2021/01/25 08:05:38;;;;;;;32.27;12.17;;;-0.20;97.30;;;;;;4897627;29;20788;-75
2021/01/25 08:08:08;;;;;;;31.50;11.53;;;-0.10;97.30;;;;;;4898698;29;20509;-75
2021/01/25 08:10:34;;;;;;;32.70;13.97;;;0.00;97.30;;;;;;4898222;29;20528;-75
2021/01/25 08:13:13;;;;;;;34.00;12.60;;;0.10;97.30;;;;;;4899644;29;20543;-75
2021/01/25 08:15:39;;;;;;;22.23;11.10;;;0.10;97.30;;;;;;4898868;29;20432;-76
2021/01/25 08:18:07;;;;;;;28.77;12.13;;;0.20;97.30;;;;;;4897904;29;20422;-73
2021/01/25 08:20:36;;;;;;;26.20;11.20;;;0.20;97.30;;;;;;4897616;29;20552;-73
2021/01/25 08:23:14;;;;;;;30.03;11.03;;;0.30;97.30;;;;;;4898565;29;20419;-73
2021/01/25 08:25:40;;;;;;;27.00;11.13;;;0.30;97.30;;;;;;4898324;29;20517;-73
2021/01/25 08:28:16;;;;;;;27.83;12.40;;;0.30;97.30;;;;;;4897814;29;20860;-74
2021/01/25 08:30:47;;;;;;;31.43;11.67;;;0.30;97.30;;;;;;4898448;29;20451;-74
2021/01/25 08:33:24;;;;;;;29.47;12.00;;;0.40;97.30;;;;;;4899035;29;20481;-73
2021/01/25 08:35:50;;;;;;;29.43;11.57;;;0.40;97.30;;;;;;4897724;29;20927;-73
2021/01/25 08:38:28;;;;;;;31.33;13.00;;;0.30;97.30;;;;;;4898487;29;20423;-75
2021/01/25 08:41:01;;;;;;;28.57;10.87;;;0.30;97.30;;;;;;4897590;29;20208;-76
2021/01/25 08:43:30;;;;;;;23.87;10.10;;;0.20;97.30;;;;;;4897924;29;20454;-75
2021/01/25 08:46:13;;;;;;;31.30;11.70;;;0.20;97.30;;;;;;4898186;29;20998;-74
2021/01/25 08:48:40;;;;;;;27.77;12.17;;;0.30;97.30;;;;;;4897241;29;20428;-73
2021/01/25 08:51:34;;;;;;;29.60;11.93;;;0.30;97.30;;;;;;4897644;29;20824;-75
2021/01/25 08:54:11;;;;;;;25.57;11.70;;;0.30;97.30;;;;;;4897861;29;20454;-74
2021/01/25 08:56:40;;;;;;;29.90;11.50;;;0.40;97.30;;;;;;4897171;29;20420;-76
2021/01/25 08:59:13;;;;;;;31.37;12.40;;;0.60;97.30;;;;;;4898339;29;20429;-74
2021/01/25 09:01:42;;;;;;;25.37;11.00;;;0.70;97.30;;;;;;4898233;29;20457;-75
2021/01/25 09:04:07;;;;;;;23.03;10.20;;;0.80;97.30;;;;;;4896857;29;20444;-78
2021/01/25 09:06:50;;;;;;;31.47;12.07;;;1.00;97.30;;;;;;4898628;29;20426;-75
2021/01/25 09:09:18;;;;;;;26.57;10.43;;;1.10;97.30;;;;;;4896297;29;20524;-78
2021/01/25 09:11:44;;;;;;;26.33;10.80;;;1.00;97.30;;;;;;4897105;29;20452;-78
2021/01/25 09:14:10;;;;;;;23.73;10.90;;;1.00;97.30;;;;;;4900088;29;20453;-77
2021/01/25 09:16:36;;;;;;;23.30;10.50;;;1.00;97.30;;;;;;4896207;29;20424;-77
2021/01/25 09:19:02;;;;;;;24.53;10.13;;;0.90;97.30;;;;;;4898028;29;20506;-78
2021/01/25 09:21:27;;;;;;;20.50;10.10;;;0.90;97.30;;;;;;4898280;29;20204;-75
2021/01/25 09:23:53;;;;;;;24.80;10.60;;;0.90;97.30;;;;;;4897805;29;20195;-75
2021/01/25 09:26:19;;;;;;;22.73;9.90;;;0.90;97.30;;;;;;4897504;29;20209;-78
2021/01/25 09:28:51;;;;;;;28.27;11.10;;;0.80;97.30;;;;;;4900165;29;20773;-78
2021/01/25 09:31:18;;;;;;;28.67;10.60;;;0.80;97.30;;;;;;4897934;29;20209;-74
2021/01/25 09:33:44;;;;;;;24.33;9.87;;;0.90;97.30;;;;;;4897035;29;20457;-73
2021/01/25 09:36:10;;;;;;;28.03;11.00;;;0.90;97.30;;;;;;4897812;29;20466;-73
2021/01/25 09:38:35;;;;;;;26.40;11.33;;;0.90;97.30;;;;;;4898410;29;20173;-75
2021/01/25 09:41:01;;;;;;;25.00;10.63;;;1.00;97.30;;;;;;4896984;29;20247;-76
2021/01/25 09:43:27;;;;;;;28.03;11.10;;;1.00;97.30;;;;;;4898850;29;20650;-75
2021/01/25 09:45:52;;;;;;;22.37;9.90;;;1.00;97.30;;;;;;4896869;29;20187;-77
2021/01/25 09:48:18;;;;;;;22.90;9.93;;;1.00;97.30;;;;;;4897910;29;20181;-75
2021/01/25 09:50:47;;;;;;;28.40;11.87;;;1.10;97.30;;;;;;4897134;29;20202;-81
2021/01/25 09:53:25;;;;;;;26.60;10.90;;;1.10;97.30;;;;;;4897603;29;20200;-78
2021/01/25 09:55:51;;;;;;;29.80;10.37;;;1.10;97.30;;;;;;4897072;29;20412;-78
2021/01/25 09:58:17;;;;;;;23.63;9.80;;;1.10;97.30;;;;;;4897789;29;20441;-77
2021/01/25 10:00:43;;;;;;;24.90;10.20;;;1.00;97.30;;;;;;4897509;29;20568;-77
2021/01/25 10:03:09;;;;;;;24.23;11.17;;;1.10;97.30;;;;;;4897088;29;20456;-77
2021/01/25 10:05:35;;;;;;;24.77;10.00;;;1.20;97.30;;;;;;4897698;29;20221;-74
2021/01/25 10:08:01;;;;;;;27.63;10.90;;;1.20;97.30;;;;;;4896960;29;20461;-73
2021/01/25 10:10:28;;;;;;;19.30;9.10;;;1.20;97.30;;;;;;4896385;29;20508;-74
2021/01/25 10:12:55;;;;;;;22.03;10.10;;;1.20;97.30;;;;;;4895682;29;20690;-73
2021/01/25 10:15:21;;;;;;;22.90;8.60;;;1.20;97.30;;;;;;4896959;29;20472;-74
2021/01/25 10:17:47;;;;;;;15.93;8.53;;;1.20;97.30;;;;;;4896507;29;20524;-76
2021/01/25 10:20:14;;;;;;;26.40;10.50;;;1.20;97.30;;;;;;4896995;29;20951;-77
2021/01/25 10:22:41;;;;;;;21.00;9.13;;;1.20;97.30;;;;;;4897439;29;20583;-75
2021/01/25 10:25:08;;;;;;;23.77;9.87;;;1.20;97.30;;;;;;4896505;29;20425;-75
2021/01/25 10:27:35;;;;;;;24.07;9.60;;;1.30;97.30;;;;;;4898504;29;20436;-76
2021/01/25 10:30:07;;;;;;;21.10;9.63;;;1.40;97.30;;;;;;4900374;29;20425;-76
2021/01/25 10:32:33;;;;;;;26.93;10.17;;;1.40;97.30;;;;;;4900134;29;20451;-74
2021/01/25 10:34:59;;;;;;;22.80;10.33;;;1.50;97.30;;;;;;4901452;29;20955;-72
2021/01/25 10:37:25;;;;;;;24.37;10.10;;;1.50;97.30;;;;;;4901441;29;20182;-73
2021/01/25 10:39:51;;;;;;;20.73;9.43;;;1.50;97.30;;;;;;4899912;29;20500;-76
2021/01/25 10:42:16;;;;;;;22.43;10.00;;;1.60;97.30;;;;;;4901296;29;20520;-77
2021/01/25 10:44:42;;;;;;;23.80;11.30;;;1.60;97.30;;;;;;4900296;29;20177;-77
2021/01/25 10:47:08;;;;;;;26.33;10.43;;;1.70;97.30;;;;;;4899932;29;20272;-74
2021/01/25 10:49:33;;;;;;;24.10;11.03;;;1.90;97.30;;;;;;4901066;29;20180;-74
2021/01/25 10:51:59;;;;;;;19.87;9.87;;;2.00;97.30;;;;;;4900145;29;20212;-74
2021/01/25 10:54:26;;;;;;;26.63;11.07;;;2.20;97.30;;;;;;4899473;29;20216;-75
2021/01/25 10:56:52;;;;;;;23.23;10.53;;;2.30;97.30;;;;;;4900040;29;20172;-76
2021/01/25 10:59:18;;;;;;;55.47;19.93;;;2.20;97.30;;;;;;4900113;29;20418;-77
2021/01/25 11:01:44;;;;;;;53.47;20.83;;;2.20;97.30;;;;;;4899288;29;20508;-76
2021/01/25 11:04:09;;;;;;;29.97;12.53;;;2.20;97.30;;;;;;4900304;29;20433;-76
2021/01/25 11:06:35;;;;;;;29.50;11.73;;;2.30;97.30;;;;;;4900254;29;20236;-73
2021/01/25 11:09:01;;;;;;;21.50;9.90;;;2.20;97.30;;;;;;4899194;29;20233;-75
2021/01/25 11:11:27;;;;;;;24.53;11.07;;;2.30;97.30;;;;;;4899418;29;20453;-73
2021/01/25 11:13:53;;;;;;;19.30;9.63;;;2.30;97.30;;;;;;4901021;29;20465;-73
2021/01/25 11:16:21;;;;;;;24.13;9.80;;;2.30;97.30;;;;;;4899622;29;20315;-75
2021/01/25 11:18:48;;;;;;;19.90;8.90;;;2.30;97.30;;;;;;4899161;29;20188;-76
2021/01/25 11:21:14;;;;;;;20.00;9.27;;;2.20;97.30;;;;;;4901300;29;20795;-76
2021/01/25 11:23:40;;;;;;;17.37;8.97;;;2.20;97.30;;;;;;4899419;29;20454;-73
2021/01/25 11:26:06;;;;;;;24.83;8.57;;;2.20;97.30;;;;;;4900374;29;20410;-76
2021/01/25 11:28:32;;;;;;;19.37;9.70;;;2.30;97.30;;;;;;4900169;29;20426;-74
2021/01/25 11:30:58;;;;;;;20.00;9.67;;;2.40;97.30;;;;;;4899110;29;20449;-72
2021/01/25 11:33:24;;;;;;;20.27;9.10;;;2.60;97.30;;;;;;4899402;29;20536;-74
2021/01/25 11:35:50;;;;;;;22.20;10.13;;;2.80;97.30;;;;;;4899978;29;20798;-75
2021/01/25 11:38:16;;;;;;;22.80;8.47;;;3.10;97.30;;;;;;4899884;29;20440;-76
2021/01/25 11:40:42;;;;;;;18.90;8.97;;;3.00;97.30;;;;;;4900022;29;20433;-74
2021/01/25 11:43:08;;;;;;;21.10;9.50;;;2.90;97.30;;;;;;4900116;29;20425;-74
2021/01/25 11:45:37;;;;;;;19.80;9.30;;;2.90;97.30;;;;;;4899089;29;20502;-75
2021/01/25 11:48:03;;;;;;;26.47;9.20;;;2.90;97.30;;;;;;4899397;29;20512;-74
2021/01/25 11:50:29;;;;;;;21.00;8.60;;;3.10;97.30;;;;;;4899487;29;20433;-74
2021/01/25 11:52:55;;;;;;;18.90;9.13;;;3.30;97.30;;;;;;4899073;29;20439;-74
2021/01/25 11:55:21;;;;;;;19.47;8.73;;;3.50;97.30;;;;;;4898124;29;20421;-72
2021/01/25 11:57:47;;;;;;;19.87;9.23;;;3.60;97.30;;;;;;4898234;29;20433;-73
2021/01/25 12:00:14;;;;;;;19.07;8.40;;;3.50;97.30;;;;;;4897417;29;20927;-73
2021/01/25 12:02:41;;;;;;;22.97;8.97;;;3.40;97.30;;;;;;4898439;29;20441;-72
2021/01/25 12:05:08;;;;;;;20.83;9.97;;;3.30;97.30;;;;;;4898176;29;20425;-71
2021/01/25 12:07:34;;;;;;;17.20;9.70;;;3.30;97.30;;;;;;4905853;29;20861;-72
2021/01/25 12:10:01;;;;;;;21.00;9.90;;;3.20;97.30;;;;;;4899692;29;20425;-72
2021/01/25 12:12:27;;;;;;;17.40;8.60;;;3.20;97.30;;;;;;4900308;29;20504;-73
2021/01/25 12:14:53;;;;;;;23.63;10.40;;;3.20;97.30;;;;;;4898675;29;20475;-73
2021/01/25 12:17:25;;;;;;;22.67;9.40;;;3.10;97.30;;;;;;4898343;29;20429;-72
2021/01/25 12:19:50;;;;;;;22.53;11.17;;;3.10;97.30;;;;;;4904885;29;20196;-75
2021/01/25 12:22:16;;;;;;;19.23;9.70;;;3.00;97.30;;;;;;4917511;29;20443;-75
2021/01/25 12:24:43;;;;;;;28.87;10.67;;;3.10;97.30;;;;;;4900548;29;20192;-72
2021/01/25 12:27:08;;;;;;;24.63;10.60;;;3.10;97.30;;;;;;4899718;29;20176;-75
2021/01/25 12:29:34;;;;;;;20.30;10.70;;;3.10;97.30;;;;;;4896945;29;20520;-75
2021/01/25 12:32:00;;;;;;;23.93;10.63;;;3.10;97.30;;;;;;4896594;29;20209;-76
2021/01/25 12:34:27;;;;;;;21.87;10.90;;;3.10;97.30;;;;;;4897129;29;20212;-76
2021/01/25 12:36:55;;;;;;;21.87;10.47;;;3.10;97.30;;;;;;4896485;29;20182;-76
2021/01/25 12:39:21;;;;;;;27.53;10.90;;;3.00;97.30;;;;;;4896282;29;20524;-74
2021/01/25 12:41:47;;;;;;;23.10;10.37;;;3.00;97.30;;;;;;4897770;29;20533;-71
2021/01/25 12:44:14;;;;;;;21.70;11.03;;;3.10;97.30;;;;;;4898849;29;20639;-72
2021/01/25 12:46:43;;;;;;;24.03;11.70;;;3.10;97.30;;;;;;4899027;29;20555;-72
2021/01/25 12:49:14;;;;;;;21.30;11.77;;;3.20;97.30;;;;;;4880131;29;20431;-73
2021/01/25 12:51:39;;;;;;;24.60;10.80;;;3.20;97.30;;;;;;4878739;29;20797;-74
2021/01/25 12:54:23;;;;;;;26.63;11.40;;;3.10;97.30;;;;;;4879243;29;20525;-74
2021/01/25 12:56:52;;;;;;;24.97;10.77;;;3.20;97.30;;;;;;4879703;29;20216;-74
2021/01/25 12:59:21;;;;;;;24.70;11.77;;;3.30;97.30;;;;;;4888082;29;20409;-75
2021/01/25 13:01:47;;;;;;;28.53;11.00;;;3.20;97.30;;;;;;4897403;29;21018;-74
2021/01/25 13:04:13;;;;;;;26.20;11.30;;;3.10;97.30;;;;;;4898175;29;20425;-74
2021/01/25 13:06:39;;;;;;;25.63;11.20;;;3.10;97.30;;;;;;4897764;29;20185;-74
2021/01/25 13:09:31;;;;;;;27.93;10.83;;;3.00;97.30;;;;;;4897017;29;20185;-76
2021/01/25 13:11:57;;;;;;;24.60;11.30;;;2.90;97.30;;;;;;4897118;29;20477;-74
2021/01/25 13:14:35;;;;;;;23.30;10.90;;;2.90;97.30;;;;;;4898099;29;20457;-75
2021/01/25 13:17:03;;;;;;;25.73;10.40;;;2.90;97.30;;;;;;4898376;29;20197;-79
2021/01/25 13:20:50;;;;;;;26.00;12.00;;;2.90;97.30;;;;;;4898563;29;20441;-76
2021/01/25 13:23:24;;;;;;;21.50;11.00;;;2.90;97.30;;;;;;4889957;29;20414;-75
2021/01/25 13:26:01;;;;;;;27.70;11.87;;;2.80;97.30;;;;;;4878949;29;20426;-73
2021/01/25 13:28:33;;;;;;;28.30;11.80;;;2.80;97.30;;;;;;4882959;29;20432;-74
2021/01/25 13:31:01;;;;;;;27.73;11.87;;;2.70;97.30;;;;;;4896959;29;20438;-75
2021/01/25 13:33:26;;;;;;;27.67;12.93;;;2.70;97.30;;;;;;4897016;29;20513;-75
2021/01/25 13:35:54;;;;;;;23.13;11.00;;;2.50;97.30;;;;;;4898260;29;20206;-75
2021/01/25 13:38:20;;;;;;;30.33;12.90;;;2.40;97.30;;;;;;4895860;29;20288;-74
2021/01/25 13:41:12;;;;;;;27.50;11.67;;;2.30;97.30;;;;;;4897781;29;20481;-73
2021/01/25 13:43:41;;;;;;;36.43;18.20;;;2.20;97.30;;;;;;4896578;29;20448;-77
2021/01/25 13:46:10;;;;;;;30.10;11.97;;;2.20;97.30;;;;;;4896766;29;20421;-76
2021/01/25 13:48:40;;;;;;;26.43;11.07;;;2.30;97.30;;;;;;4896696;29;20942;-73
2021/01/25 13:51:10;;;;;;;30.37;11.90;;;2.20;97.30;;;;;;4896955;29;20449;-74
2021/01/25 13:53:43;;;;;;;31.40;12.90;;;2.20;97.30;;;;;;4897735;29;20469;-76
2021/01/25 13:56:12;;;;;;;27.30;12.77;;;2.30;97.30;;;;;;4897586;29;20422;-75
2021/01/25 13:58:42;;;;;;;33.33;12.33;;;2.30;97.30;;;;;;4898360;29;20488;-75
2021/01/25 14:01:12;;;;;;;32.40;12.73;;;2.30;97.30;;;;;;4897049;29;20438;-75
2021/01/25 14:03:42;;;;;;;31.33;12.80;;;2.30;97.30;;;;;;4904299;29;20428;-77
2021/01/25 14:06:14;;;;;;;31.00;12.53;;;2.40;97.30;;;;;;4903678;29;20432;-77
2021/01/25 14:08:43;;;;;;;31.07;13.40;;;2.40;97.30;;;;;;4904000;29;20421;-78
2021/01/25 14:11:11;;;;;;;28.23;13.00;;;2.40;97.30;;;;;;4903363;29;20445;-76
2021/01/25 14:13:37;;;;;;;33.00;12.97;;;2.40;97.30;;;;;;4903140;29;20457;-74
2021/01/25 14:16:02;;;;;;;27.53;11.87;;;2.50;97.30;;;;;;4906126;29;20413;-84
2021/01/25 14:18:28;;;;;;;32.70;13.87;;;2.50;97.30;;;;;;4902990;29;20185;-73
2021/01/25 14:20:54;;;;;;;35.63;11.60;;;2.40;97.30;;;;;;4902609;29;20666;-72
2021/01/25 14:23:19;;;;;;;28.23;12.23;;;2.50;97.30;;;;;;4903538;29;20536;-73
2021/01/25 14:25:45;;;;;;;29.40;12.47;;;2.40;97.30;;;;;;4903127;29;20210;-80
2021/01/25 14:28:11;;;;;;;30.23;13.03;;;2.40;97.30;;;;;;4904953;29;20185;-78
2021/01/25 14:30:44;;;;;;;26.53;11.40;;;2.30;97.30;;;;;;4903632;29;20705;-80
2021/01/25 14:33:09;;;;;;;31.23;12.67;;;2.20;97.30;;;;;;4903832;29;20259;-81
2021/01/25 14:35:35;;;;;;;24.13;11.50;;;2.10;97.30;;;;;;4907658;29;20421;-81
2021/01/25 14:38:00;;;;;;;32.60;15.20;;;2.00;97.30;;;;;;4909684;29;20229;-69
2021/01/25 14:40:26;;;;;;;32.80;15.20;;;2.00;97.30;;;;;;4902249;29;20650;-73
2021/01/25 14:42:52;;;;;;;31.77;12.90;;;2.00;97.30;;;;;;4902676;29;20567;-73
2021/01/25 14:45:25;;;;;;;31.67;12.83;;;2.00;97.30;;;;;;4902777;29;20267;-73
2021/01/25 14:47:51;;;;;;;32.87;14.03;;;1.90;97.30;;;;;;4903655;29;20500;-74
2021/01/25 14:50:17;;;;;;;31.20;12.93;;;1.90;97.30;;;;;;4903307;29;20462;-73
2021/01/25 14:52:43;;;;;;;29.00;13.63;;;1.90;97.30;;;;;;4904521;29;20798;-80
2021/01/25 14:55:10;;;;;;;32.70;12.80;;;1.80;97.30;;;;;;4906001;29;20213;-79
2021/01/25 14:57:35;;;;;;;31.00;13.70;;;1.70;97.30;;;;;;4903028;29;20196;-71
2021/01/25 15:00:02;;;;;;;23.90;11.90;;;1.70;97.30;;;;;;4901749;29;20516;-73
2021/01/25 15:02:28;;;;;;;31.77;13.53;;;1.60;97.30;;;;;;4902594;29;20209;-77
2021/01/25 15:04:53;;;;;;;26.17;12.30;;;1.60;97.30;;;;;;4903345;29;20838;-77
2021/01/25 15:07:19;;;;;;;32.60;14.63;;;1.60;97.30;;;;;;4903112;29;20195;-77
2021/01/25 15:09:45;;;;;;;28.17;12.20;;;1.60;97.30;;;;;;4902480;29;20223;-77
2021/01/25 15:12:10;;;;;;;32.57;13.70;;;1.60;97.30;;;;;;4903466;29;20205;-79
2021/01/25 15:14:36;;;;;;;33.57;15.70;;;1.60;97.30;;;;;;4900000;29;20203;-70
2021/01/25 15:17:02;;;;;;;31.03;13.67;;;1.50;97.30;;;;;;4899155;29;20180;-72
2021/01/25 15:19:28;;;;;;;37.63;16.07;;;1.60;97.30;;;;;;4899211;29;20271;-72
2021/01/25 15:21:54;;;;;;;34.30;14.73;;;1.50;97.30;;;;;;4899118;29;20231;-72
2021/01/25 15:24:21;;;;;;;32.53;13.67;;;1.50;97.30;;;;;;4899180;29;20791;-73
2021/01/25 15:26:49;;;;;;;34.90;14.20;;;1.40;97.30;;;;;;4900402;29;21043;-71
2021/01/25 15:29:15;;;;;;;27.03;12.90;;;1.40;97.30;;;;;;4899115;29;20516;-71
2021/01/25 15:31:43;;;;;;;37.33;14.40;;;1.40;97.30;;;;;;4900016;29;20437;-71
2021/01/25 15:34:09;;;;;;;33.87;14.07;;;1.30;97.30;;;;;;4899594;29;20469;-72
2021/01/25 15:36:36;;;;;;;78.37;32.73;;;1.30;97.30;;;;;;4899654;29;20429;-73
2021/01/25 15:39:06;;;;;;;92.07;34.07;;;1.30;97.30;;;;;;4898751;29;20943;-72
2021/01/25 15:41:34;;;;;;;106.90;38.33;;;1.20;97.30;;;;;;4902704;29;20430;-82
2021/01/25 15:44:00;;;;;;;109.47;42.63;;;1.10;97.30;;;;;;4904242;29;20500;-84
2021/01/25 15:46:26;;;;;;;86.63;33.13;;;1.10;97.30;;;;;;4902169;29;20428;-85
2021/01/25 15:48:52;;;;;;;137.53;63.37;;;1.10;97.30;;;;;;4901315;29;20481;-83
2021/01/25 15:51:18;;;;;;;71.10;34.73;;;1.00;97.30;;;;;;4901031;29;20811;-87
2021/01/25 15:53:45;;;;;;;59.50;23.77;;;1.00;97.30;;;;;;4900638;29;20461;-85
2021/01/25 15:56:11;;;;;;;46.17;21.27;;;1.00;97.30;;;;;;4900634;29;20428;-85
2021/01/25 15:58:37;;;;;;;44.27;24.30;;;1.00;97.30;;;;;;4900090;29;20438;-86
2021/01/25 16:01:04;;;;;;;35.27;14.63;;;1.00;97.30;;;;;;4898374;29;20208;-69
2021/01/25 16:03:29;;;;;;;36.23;15.60;;;0.90;97.30;;;;;;4898324;29;20560;-70
2021/01/25 16:05:55;;;;;;;39.93;16.43;;;0.90;97.30;;;;;;4899670;29;20418;-70
2021/01/25 16:08:21;;;;;;;32.30;13.70;;;0.90;97.30;;;;;;4898491;29;20383;-70
2021/01/25 16:10:47;;;;;;;36.97;14.70;;;0.80;97.30;;;;;;4897776;29;20363;-72
2021/01/25 16:13:14;;;;;;;34.63;14.70;;;0.80;97.30;;;;;;4898633;29;20182;-71
2021/01/25 16:15:40;;;;;;;35.80;16.07;;;0.70;97.30;;;;;;4899773;29;20551;-72
2021/01/25 16:18:06;;;;;;;34.77;15.50;;;0.70;97.30;;;;;;4899565;29;20425;-73
2021/01/25 16:20:32;;;;;;;47.87;19.60;;;0.60;97.30;;;;;;4899005;29;20424;-72
2021/01/25 16:22:57;;;;;;;52.83;22.00;;;0.60;97.30;;;;;;4899538;29;20260;-72
2021/01/25 16:25:24;;;;;;;53.97;23.30;;;0.60;97.30;;;;;;4898723;29;20541;-72
2021/01/25 16:27:51;;;;;;;47.40;19.40;;;0.50;97.30;;;;;;4897798;29;20236;-72
2021/01/25 16:30:18;;;;;;;47.00;19.60;;;0.50;97.30;;;;;;4897722;29;20871;-69
2021/01/25 16:32:44;;;;;;;45.20;20.73;;;0.50;97.30;;;;;;4899101;29;20849;-70
2021/01/25 16:35:11;;;;;;;42.03;19.60;;;0.50;97.30;;;;;;4897724;29;20559;-69
2021/01/25 16:37:37;;;;;;;40.70;17.17;;;0.40;97.30;;;;;;4899557;29;20445;-72
2021/01/25 16:40:03;;;;;;;48.13;18.50;;;0.40;97.30;;;;;;4897247;29;20970;-71
2021/01/25 16:42:29;;;;;;;63.80;29.63;;;0.40;97.30;;;;;;4897325;29;20197;-72
2021/01/25 16:44:55;;;;;;;69.27;28.57;;;0.30;97.30;;;;;;4897692;29;20974;-72
2021/01/25 16:47:20;;;;;;;107.00;39.67;;;0.30;97.30;;;;;;4897665;29;20185;-71
2021/01/25 16:49:46;;;;;;;105.43;40.07;;;0.30;97.30;;;;;;4898386;29;20268;-71
2021/01/25 16:52:12;;;;;;;102.57;37.87;;;0.30;97.30;;;;;;4899267;29;20201;-72
2021/01/25 16:54:38;;;;;;;161.67;60.50;;;0.30;97.30;;;;;;4898302;29;20838;-71
2021/01/25 16:57:04;;;;;;;186.03;82.57;;;0.20;97.30;;;;;;4897131;29;20176;-71
2021/01/25 16:59:32;;;;;;;95.30;41.70;;;0.20;97.30;;;;;;4897283;29;20307;-69
2021/01/25 17:01:58;;;;;;;74.30;37.00;;;0.20;97.30;;;;;;4896871;29;20838;-69
2021/01/25 17:04:23;;;;;;;56.30;24.73;;;0.20;97.30;;;;;;4898109;29;20437;-71
2021/01/25 17:06:49;;;;;;;43.27;20.00;;;0.20;97.30;;;;;;4897846;29;20481;-71
2021/01/25 17:09:15;;;;;;;39.27;17.93;;;0.20;97.30;;;;;;4896853;29;20192;-72
2021/01/25 17:11:40;;;;;;;40.77;19.00;;;0.20;97.30;;;;;;4896578;29;20283;-72
2021/01/25 17:14:06;;;;;;;46.40;18.20;;;0.20;97.30;;;;;;4898790;29;20299;-72
2021/01/25 17:16:32;;;;;;;37.67;15.97;;;0.30;97.30;;;;;;4898647;29;20183;-72
2021/01/25 17:18:59;;;;;;;39.83;16.10;;;0.30;97.30;;;;;;4896872;29;20424;-72
2021/01/25 17:21:31;;;;;;;37.70;17.27;;;0.40;97.30;;;;;;4898168;29;20974;-72
2021/01/25 17:23:57;;;;;;;39.53;16.33;;;0.50;97.30;;;;;;4897055;29;20422;-72
2021/01/25 17:26:23;;;;;;;37.03;16.00;;;0.50;97.30;;;;;;4898223;29;20409;-72
2021/01/25 17:28:48;;;;;;;38.40;16.97;;;0.60;97.30;;;;;;4896864;29;20432;-73
2021/01/25 17:31:15;;;;;;;42.83;16.87;;;0.70;97.30;;;;;;4898389;29;20272;-72
2021/01/25 17:33:41;;;;;;;36.63;15.97;;;0.60;97.30;;;;;;4897984;29;20647;-72
2021/01/25 17:36:09;;;;;;;41.00;19.47;;;0.70;97.30;;;;;;4896414;29;20430;-72
2021/01/25 17:38:35;;;;;;;39.03;16.57;;;0.70;97.30;;;;;;4896944;29;20928;-72
2021/01/25 17:41:00;;;;;;;34.30;16.27;;;0.60;97.30;;;;;;4896245;29;20536;-72
2021/01/25 17:43:27;;;;;;;37.53;18.03;;;0.50;97.30;;;;;;4896456;29;20189;-73
2021/01/25 17:45:54;;;;;;;49.03;22.87;;;0.40;97.30;;;;;;4897852;29;20185;-72
2021/01/25 17:48:21;;;;;;;44.03;19.13;;;0.30;97.30;;;;;;4895931;29;20425;-72
2021/01/25 17:50:47;;;;;;;65.50;29.50;;;0.30;97.30;;;;;;4896190;29;20487;-73
2021/01/25 17:53:14;;;;;;;52.63;25.30;;;0.20;97.30;;;;;;4896715;29;20424;-71
2021/01/25 17:55:40;;;;;;;49.47;19.57;;;0.20;97.30;;;;;;4897769;29;20904;-72
2021/01/25 17:58:06;;;;;;;41.17;18.90;;;0.20;97.30;;;;;;4897587;29;20428;-72
2021/01/25 18:00:32;;;;;;;43.00;20.20;;;0.20;97.30;;;;;;4896328;29;20275;-72
2021/01/25 18:02:57;;;;;;;44.17;20.80;;;0.10;97.30;;;;;;4896647;29;20663;-71
2021/01/25 18:05:25;;;;;;;59.40;25.57;;;0.10;97.30;;;;;;4896322;29;20184;-72
2021/01/25 18:07:51;;;;;;;62.53;26.33;;;0.10;97.30;;;;;;4896504;29;20281;-72
2021/01/25 18:10:17;;;;;;;67.77;26.40;;;0.00;97.30;;;;;;4898012;29;20840;-71
2021/01/25 18:12:44;;;;;;;46.07;20.20;;;0.10;97.30;;;;;;4896667;29;20917;-72
2021/01/25 18:15:11;;;;;;;66.10;27.73;;;0.10;97.30;;;;;;4896498;29;20465;-72
2021/01/25 18:17:38;;;;;;;107.97;42.47;;;0.10;97.30;;;;;;4897049;29;20584;-72
2021/01/25 18:20:05;;;;;;;111.87;42.30;;;0.10;97.30;;;;;;4897380;29;20414;-71
2021/01/25 18:22:31;;;;;;;102.50;38.80;;;0.10;97.30;;;;;;4897568;29;20524;-72
2021/01/25 18:24:57;;;;;;;101.67;39.63;;;0.10;97.30;;;;;;4896915;29;20496;-72
2021/01/25 18:27:23;;;;;;;110.67;37.50;;;0.00;97.30;;;;;;4897776;29;20177;-72
2021/01/25 18:29:49;;;;;;;180.43;64.63;;;0.00;97.30;;;;;;4896322;29;20188;-72
2021/01/25 18:32:14;;;;;;;85.00;31.93;;;-0.10;97.30;;;;;;4896616;29;20442;-72
2021/01/25 18:34:40;;;;;;;41.00;18.33;;;-0.20;97.30;;;;;;4896500;29;20217;-71
2021/01/25 18:37:06;;;;;;;41.03;19.00;;;-0.20;97.30;;;;;;4896290;29;20181;-72
2021/01/25 18:39:32;;;;;;;41.77;18.57;;;-0.30;97.30;;;;;;4897643;29;20525;-73